createdAt,value
2022-08-02T03:45:33.702Z,2.10
2022-08-02T03:48:01.279Z,2.08
2022-08-02T03:50:33.957Z,2.20
2022-08-02T03:53:01.994Z,2.42
2022-08-02T03:55:28.891Z,2.08
2022-08-02T03:57:56.994Z,2.10
2022-08-02T04:00:24.164Z,2.33
2022-08-02T04:02:51.374Z,2.72
2022-08-02T04:05:18.878Z,2.38
2022-08-02T04:08:33.656Z,2.13
2022-08-02T04:10:54.073Z,1.98
2022-08-02T04:13:22.684Z,2.20
2022-08-02T04:15:53.938Z,2.00
2022-08-02T04:18:25.625Z,2.13
2022-08-02T04:20:55.667Z,1.90
2022-08-02T04:23:24.214Z,2.03
2022-08-02T04:25:54.750Z,2.17
2022-08-02T04:28:27.762Z,2.10
2022-08-02T04:30:57.792Z,2.70
2022-08-02T04:33:25.518Z,2.17
2022-08-02T04:35:56.501Z,2.40
2022-08-02T04:38:26.572Z,2.00
2022-08-02T04:40:55.447Z,2.47
2022-08-02T04:43:22.733Z,2.25
2022-08-02T04:45:53.067Z,2.25
2022-08-02T04:48:21.178Z,2.60
2022-08-02T04:50:48.270Z,2.35
2022-08-02T04:53:15.097Z,2.20
2022-08-02T04:55:42.058Z,2.80
2022-08-02T04:58:37.036Z,2.92
2022-08-02T05:00:55.858Z,2.55
2022-08-02T05:03:22.582Z,2.40
2022-08-02T05:05:49.311Z,2.70
2022-08-02T05:08:16.146Z,3.13
2022-08-02T05:10:42.834Z,2.72
2022-08-02T05:13:09.538Z,2.40
2022-08-02T05:15:36.431Z,2.20
2022-08-02T05:18:03.237Z,3.08
2022-08-02T05:20:29.951Z,2.65
2022-08-02T05:22:56.666Z,3.03
2022-08-02T05:25:23.537Z,2.63
2022-08-02T05:27:50.305Z,2.35
2022-08-02T05:30:17.101Z,2.65
2022-08-02T05:32:54.120Z,3.03
2022-08-02T05:35:23.137Z,2.88
2022-08-02T05:37:51.063Z,2.63
2022-08-02T05:40:25.547Z,2.88
2022-08-02T05:42:52.752Z,3.17
2022-08-02T05:45:19.608Z,2.65
2022-08-02T05:47:46.347Z,2.30
2022-08-02T05:50:13.116Z,2.95
2022-08-02T05:52:59.113Z,2.85
2022-08-02T05:55:34.762Z,2.80
2022-08-02T05:58:17.757Z,2.40
2022-08-02T06:00:48.846Z,2.33
2022-08-02T06:03:19.265Z,2.13
2022-08-02T06:06:08.197Z,2.03
2022-08-02T06:08:40.589Z,2.13
2022-08-02T06:11:15.175Z,2.10
2022-08-02T06:13:42.746Z,2.17
2022-08-02T06:16:13.965Z,2.50
2022-08-02T06:18:42.174Z,2.33
2022-08-02T06:22:33.202Z,2.20
2022-08-02T06:23:59.293Z,2.38
2022-08-02T06:26:27.759Z,2.08
2022-08-02T06:28:57.054Z,2.08
2022-08-02T06:31:24.004Z,2.30
2022-08-02T06:33:50.745Z,2.63
2022-08-02T06:36:36.722Z,2.17
2022-08-02T06:39:04.365Z,2.17
2022-08-02T06:41:43.869Z,2.17
2022-08-02T06:44:45.065Z,1.83
2022-08-02T06:47:11.406Z,2.30
2022-08-02T06:49:52.680Z,2.28
2022-08-02T06:52:30.174Z,1.92
2022-08-02T06:55:01.778Z,2.20
2022-08-02T06:57:29.799Z,2.10
2022-08-02T06:59:58.229Z,2.10
2022-08-02T07:02:25.044Z,1.90
2022-08-02T07:04:51.903Z,2.50
2022-08-02T07:07:18.768Z,2.28
2022-08-02T07:09:57.219Z,2.20
2022-08-02T07:12:30.777Z,1.63
2022-08-02T07:14:59.368Z,2.30
2022-08-02T07:17:26.308Z,1.98
2022-08-02T07:19:53.119Z,1.85
2022-08-02T07:22:23.078Z,1.80
2022-08-02T07:24:50.818Z,1.80
2022-08-02T07:27:17.621Z,1.70
2022-08-02T07:29:46.625Z,1.77
2022-08-02T07:32:19.118Z,1.60
2022-08-02T07:34:52.570Z,1.67
2022-08-02T07:37:35.743Z,1.58
2022-08-02T07:40:13.455Z,1.60
2022-08-02T07:42:43.177Z,1.95
2022-08-02T07:45:10.573Z,1.83
2022-08-02T07:47:41.664Z,1.40
2022-08-02T07:50:09.840Z,1.20
2022-08-02T07:52:36.779Z,1.40
2022-08-02T07:55:04.740Z,1.30
2022-08-02T07:57:31.500Z,1.30
2022-08-02T07:59:58.252Z,1.80
2022-08-02T08:02:25.119Z,1.50
2022-08-02T08:04:52.322Z,1.35
2022-08-02T08:07:20.276Z,1.77
2022-08-02T08:09:48.126Z,1.60
2022-08-02T08:12:16.323Z,1.33
2022-08-02T08:14:44.613Z,1.30
2022-08-02T08:17:11.415Z,1.13
2022-08-02T08:19:50.908Z,1.48
2022-08-02T08:22:22.833Z,1.08
2022-08-02T08:24:49.945Z,1.23
2022-08-02T08:27:18.078Z,1.50
2022-08-02T08:29:45.996Z,1.15
2022-08-02T08:32:17.598Z,0.93
2022-08-02T08:34:46.397Z,1.20
2022-08-02T08:37:18.306Z,1.10
2022-08-02T08:39:56.454Z,0.95
2022-08-02T08:42:28.936Z,1.08
2022-08-02T08:44:57.552Z,1.13
2022-08-02T08:47:36.734Z,1.20
2022-08-02T08:50:26.408Z,1.20
2022-08-02T08:53:03.863Z,1.20
2022-08-02T08:55:32.747Z,1.25
2022-08-02T08:58:00.758Z,1.30
2022-08-02T09:00:29.732Z,1.08
2022-08-02T09:02:57.230Z,1.25
2022-08-02T09:05:24.101Z,1.00
2022-08-02T09:07:52.923Z,1.17
2022-08-02T09:10:37.674Z,1.00
2022-08-02T09:13:38.774Z,1.45
2022-08-02T09:16:12.891Z,1.00
2022-08-02T09:18:46.975Z,1.25
2022-08-02T09:21:16.080Z,1.20
2022-08-02T09:23:48.258Z,1.30
2022-08-02T09:26:17.320Z,1.10
2022-08-02T09:28:46.758Z,1.20
2022-08-02T09:31:13.417Z,1.13
2022-08-02T09:33:41.826Z,1.02
2022-08-02T09:36:17.641Z,1.25
2022-08-02T09:39:03.790Z,1.20
2022-08-02T09:41:35.833Z,1.02
2022-08-02T09:44:06.744Z,1.13
2022-08-02T09:46:42.777Z,1.23
2022-08-02T09:49:15.095Z,1.77
2022-08-02T09:54:21.262Z,1.42
2022-08-02T09:56:51.697Z,1.23
2022-08-02T09:59:20.960Z,1.27
2022-08-02T10:01:51.277Z,1.30
2022-08-02T10:04:30.619Z,1.10
2022-08-02T10:06:59.512Z,1.23
2022-08-02T10:09:28.679Z,1.10
2022-08-02T10:11:55.915Z,1.27
2022-08-02T10:14:23.713Z,1.40
2022-08-02T10:16:51.754Z,1.40
2022-08-02T10:19:18.485Z,1.05
2022-08-02T10:22:09.954Z,1.23
2022-08-02T10:24:39.426Z,1.35
2022-08-02T10:27:18.871Z,1.40
2022-08-02T10:29:54.064Z,1.20
2022-08-02T10:32:37.462Z,1.20
2022-08-02T10:35:20.166Z,1.10
2022-08-02T10:38:01.500Z,1.20
2022-08-02T10:40:35.879Z,1.30
2022-08-02T10:43:02.618Z,1.27
2022-08-02T10:45:29.454Z,1.40
2022-08-02T10:48:10.243Z,1.45
2022-08-02T10:50:46.080Z,1.20
2022-08-02T10:53:31.566Z,1.27
2022-08-02T10:56:00.716Z,1.10
2022-08-02T10:58:31.586Z,1.10
2022-08-02T11:01:04.310Z,1.00
2022-08-02T11:03:42.390Z,1.20
2022-08-02T11:06:25.336Z,1.30
2022-08-02T11:09:32.511Z,1.40
2022-08-02T11:12:03.259Z,1.25
2022-08-02T11:14:30.536Z,1.40
2022-08-02T11:16:57.215Z,1.30
2022-08-02T11:19:24.969Z,1.67
2022-08-02T11:22:07.542Z,1.45
2022-08-02T11:24:36.541Z,1.10
2022-08-02T11:27:05.377Z,1.40
2022-08-02T11:29:43.762Z,1.23
2022-08-02T11:32:19.020Z,1.40
2022-08-02T11:34:51.606Z,1.05
2022-08-02T11:37:36.354Z,1.08
2022-08-02T11:40:04.783Z,1.50
2022-08-02T11:42:33.298Z,1.23
2022-08-02T11:45:00.442Z,1.40
2022-08-02T11:47:27.675Z,1.63
2022-08-02T11:50:10.571Z,1.30
2022-08-02T11:52:38.084Z,1.10
2022-08-02T11:55:08.931Z,1.35
2022-08-02T11:58:03.461Z,1.30
2022-08-02T12:00:22.874Z,1.20
2022-08-02T12:02:53.984Z,1.20
2022-08-02T12:05:39.115Z,1.38
2022-08-02T12:08:10.675Z,1.40
2022-08-02T12:10:50.087Z,1.50
2022-08-02T12:13:17.005Z,1.45
2022-08-02T12:15:46.053Z,1.30
2022-08-02T12:18:34.394Z,1.50
2022-08-02T12:21:01.986Z,1.75
2022-08-02T12:23:29.300Z,1.60
2022-08-02T12:26:15.911Z,1.50
2022-08-02T12:28:43.430Z,1.60
2022-08-02T12:31:14.119Z,1.55
2022-08-02T12:33:54.986Z,1.45
2022-08-02T12:36:30.617Z,1.60
2022-08-02T12:39:01.597Z,1.30
2022-08-02T12:41:31.290Z,1.50
2022-08-02T12:44:00.393Z,1.70
2022-08-02T12:46:27.529Z,1.40
2022-08-02T12:49:16.822Z,1.30
2022-08-02T12:51:56.328Z,1.40
2022-08-02T12:54:48.867Z,1.60
2022-08-02T12:57:18.880Z,1.38
2022-08-02T12:59:53.532Z,1.60
2022-08-02T13:02:21.556Z,1.38
2022-08-02T13:04:49.775Z,1.30
2022-08-02T13:07:17.863Z,1.55
2022-08-02T13:09:45.935Z,1.70
2022-08-02T13:12:13.205Z,1.60
2022-08-02T13:14:42.301Z,2.00
2022-08-02T13:17:10.011Z,1.90
2022-08-02T13:19:38.209Z,1.75
2022-08-02T13:22:04.997Z,1.70
2022-08-02T13:24:39.874Z,1.75
2022-08-02T13:27:20.993Z,1.80
2022-08-02T13:29:48.911Z,1.40
2022-08-02T13:32:16.648Z,1.65
2022-08-02T13:34:43.855Z,1.63
2022-08-02T13:37:10.674Z,1.92
2022-08-02T13:39:37.505Z,1.42
2022-08-02T13:42:05.888Z,1.90
2022-08-02T13:44:33.374Z,1.88
2022-08-02T13:47:01.108Z,1.83
2022-08-02T13:49:49.944Z,1.60
2022-08-02T13:52:14.945Z,1.45
2022-08-02T13:54:42.102Z,1.50
2022-08-02T13:57:08.822Z,1.75
2022-08-02T13:59:56.570Z,1.75
2022-08-02T14:02:22.486Z,1.70
2022-08-02T14:04:49.228Z,1.50
2022-08-02T14:07:18.902Z,1.50
2022-08-02T14:09:45.840Z,1.40
2022-08-02T14:12:13.122Z,1.65
2022-08-02T14:14:40.129Z,1.42
2022-08-02T14:17:06.942Z,1.50
2022-08-02T14:19:33.687Z,1.50
2022-08-02T14:22:11.020Z,1.50
2022-08-02T14:24:39.718Z,1.80
2022-08-02T14:27:06.579Z,1.30
2022-08-02T14:29:33.384Z,1.60
2022-08-02T14:32:00.263Z,1.60
2022-08-02T14:34:27.845Z,1.70
2022-08-02T14:36:56.586Z,1.45
2022-08-02T14:39:23.423Z,1.48
2022-08-02T14:42:00.212Z,1.70
2022-08-02T14:44:28.782Z,1.70
2022-08-02T14:46:55.961Z,1.38
2022-08-02T14:49:25.940Z,1.58
2022-08-02T14:51:57.066Z,2.05
2022-08-02T14:54:28.260Z,2.50
2022-08-02T14:56:59.321Z,2.22
2022-08-02T14:59:26.451Z,1.90
2022-08-02T15:01:53.360Z,1.60
2022-08-02T15:04:20.406Z,1.60
2022-08-02T15:06:47.167Z,1.40
2022-08-02T15:09:13.934Z,1.20
2022-08-02T15:11:47.508Z,1.35
2022-08-02T15:14:18.489Z,1.30
2022-08-02T15:16:56.443Z,1.33
2022-08-02T15:19:23.709Z,1.33
2022-08-02T15:21:56.007Z,1.40
2022-08-02T15:24:23.986Z,1.40
2022-08-02T15:26:51.345Z,1.65
2022-08-02T15:29:18.912Z,1.42
2022-08-02T15:31:46.166Z,1.25
2022-08-02T15:34:13.254Z,1.45
2022-08-02T15:36:40.182Z,1.52
2022-08-02T15:39:06.976Z,1.45
2022-08-02T15:41:33.802Z,1.70
2022-08-02T15:44:01.895Z,1.50
2022-08-02T15:46:31.104Z,1.80
2022-08-02T15:48:59.722Z,1.40
2022-08-02T15:51:26.975Z,1.50
2022-08-02T15:53:53.849Z,1.50
2022-08-02T15:56:21.957Z,1.38
2022-08-02T15:58:52.978Z,1.55
2022-08-02T16:01:23.669Z,1.45
2022-08-02T16:03:50.525Z,1.30
2022-08-02T16:06:17.455Z,1.27
2022-08-02T16:08:51.684Z,1.33
2022-08-02T16:11:22.498Z,1.35
2022-08-02T16:13:55.176Z,1.50
2022-08-02T16:18:52.851Z,1.63
2022-08-02T16:21:19.769Z,1.60
2022-08-02T16:24:01.622Z,1.60
2022-08-02T16:26:31.033Z,1.60
2022-08-02T16:28:58.830Z,1.65
2022-08-02T16:31:25.556Z,1.30
2022-08-02T16:33:55.963Z,1.40
2022-08-02T16:36:23.977Z,1.23
2022-08-02T16:38:50.758Z,1.45
2022-08-02T16:41:17.462Z,1.35
2022-08-02T16:43:44.168Z,1.42
2022-08-02T16:46:10.983Z,2.00
2022-08-02T16:48:37.831Z,1.50
2022-08-02T16:51:04.818Z,1.33
2022-08-02T16:54:00.276Z,1.40
2022-08-02T16:56:29.024Z,1.42
2022-08-02T16:58:59.489Z,1.23
2022-08-02T17:02:02.715Z,1.50
2022-08-02T17:04:15.585Z,1.30
2022-08-02T17:06:47.729Z,1.60
2022-08-02T17:10:02.165Z,1.35
2022-08-02T17:12:06.348Z,1.27
2022-08-02T17:17:34.295Z,1.40
2022-08-02T17:20:02.005Z,1.40
2022-08-02T17:22:28.965Z,1.40
2022-08-02T17:24:56.151Z,1.50
2022-08-02T17:27:23.045Z,1.17
2022-08-02T17:29:49.892Z,1.42
2022-08-02T17:32:18.348Z,1.35
2022-08-02T17:34:48.971Z,1.30
2022-08-02T17:37:26.409Z,1.50
2022-08-02T17:39:53.167Z,1.42
2022-08-02T17:42:23.737Z,1.40
2022-08-02T17:44:51.841Z,1.30
2022-08-02T17:47:19.213Z,1.42
2022-08-02T17:49:48.438Z,1.20
2022-08-02T17:52:51.910Z,1.17
2022-08-02T17:55:04.106Z,1.00
2022-08-02T17:57:58.095Z,1.30
2022-08-02T18:00:17.956Z,1.80
2022-08-02T18:02:53.020Z,1.13
2022-08-02T18:05:35.411Z,1.38
2022-08-02T18:08:07.549Z,1.30
2022-08-02T18:10:34.452Z,1.27
2022-08-02T18:13:01.211Z,1.40
2022-08-02T18:15:30.358Z,1.10
2022-08-02T18:17:59.466Z,1.33
2022-08-02T18:20:26.242Z,1.25
2022-08-02T18:22:55.581Z,1.40
2022-08-02T18:25:37.059Z,1.40
2022-08-02T18:28:11.859Z,1.45
2022-08-02T18:30:39.444Z,1.33
2022-08-02T18:33:59.369Z,1.42
2022-08-02T18:35:55.688Z,1.48
2022-08-02T18:38:23.582Z,1.40
2022-08-02T18:40:51.231Z,1.50
2022-08-02T18:43:18.476Z,1.55
2022-08-02T18:46:05.485Z,1.30
2022-08-02T18:48:32.121Z,1.42
2022-08-02T18:50:58.830Z,1.33
2022-08-02T18:53:39.322Z,1.60
2022-08-02T18:56:20.013Z,1.80
2022-08-02T18:58:55.284Z,1.70
2022-08-02T19:01:33.901Z,1.50
2022-08-02T19:04:04.219Z,1.45
2022-08-02T19:06:31.719Z,1.50
2022-08-02T19:09:12.826Z,1.83
2022-08-02T19:11:47.223Z,1.45
2022-08-02T19:14:27.140Z,1.63
2022-08-02T19:16:59.299Z,1.48
2022-08-02T19:19:28.885Z,1.40
2022-08-02T19:22:16.458Z,1.63
2022-08-02T19:24:45.874Z,1.95
2022-08-02T19:27:14.670Z,2.10
2022-08-02T19:29:48.914Z,1.80
2022-08-02T19:35:19.726Z,1.73
2022-08-02T19:37:53.947Z,3.83
2022-08-02T19:40:24.426Z,5.85
2022-08-02T19:44:23.171Z,7.38
2022-08-02T19:45:49.751Z,4.90
2022-08-02T19:48:24.176Z,3.50
2022-08-02T19:50:56.284Z,2.08
2022-08-02T19:53:28.469Z,1.95
2022-08-02T19:55:59.951Z,2.20
2022-08-02T19:58:30.284Z,2.25
2022-08-02T20:00:57.785Z,2.00
2022-08-02T20:03:52.135Z,2.00
2022-08-02T20:06:13.688Z,3.15
2022-08-02T20:08:53.065Z,2.40
2022-08-02T20:11:24.673Z,3.30
2022-08-02T20:13:52.689Z,2.70
2022-08-02T20:16:27.477Z,2.33
2022-08-02T20:18:56.109Z,2.10
2022-08-02T20:21:30.568Z,2.60
2022-08-02T20:24:01.719Z,2.78
2022-08-02T20:26:28.637Z,2.97
2022-08-02T20:28:55.343Z,2.72
2022-08-02T20:31:29.029Z,2.85
2022-08-02T20:33:56.905Z,1.90
2022-08-02T20:36:24.889Z,2.60
2022-08-02T20:38:51.620Z,2.22
2022-08-02T20:41:21.599Z,1.73
2022-08-02T20:43:48.885Z,1.73
2022-08-02T20:46:15.837Z,1.80
2022-08-02T20:48:42.589Z,1.75
2022-08-02T20:51:12.559Z,2.28
2022-08-02T20:53:55.037Z,1.67
2022-08-02T20:56:23.533Z,2.00
2022-08-02T20:58:52.182Z,2.08
2022-08-02T21:01:21.202Z,1.85
2022-08-02T21:03:58.714Z,2.05
2022-08-02T21:06:28.205Z,2.67
2022-08-02T21:08:55.758Z,2.10
2022-08-02T21:11:25.312Z,2.20
2022-08-02T21:14:07.259Z,2.17
2022-08-02T21:16:35.126Z,2.10
2022-08-02T21:19:02.119Z,2.03
2022-08-02T21:21:29.785Z,1.88
2022-08-02T21:23:57.216Z,2.15
2022-08-02T21:26:28.128Z,1.88
2022-08-02T21:28:57.940Z,1.75
2022-08-02T21:31:30.014Z,2.28
2022-08-02T21:34:00.132Z,2.20
2022-08-02T21:36:33.840Z,2.22
2022-08-02T21:39:08.973Z,2.13
2022-08-02T21:41:39.068Z,1.90
2022-08-02T21:44:13.286Z,2.45
2022-08-02T21:46:40.828Z,1.52
2022-08-02T21:49:11.352Z,2.50
2022-08-02T21:51:39.348Z,2.20
2022-08-02T21:54:18.574Z,1.70
2022-08-02T21:56:48.282Z,2.20
2022-08-02T21:59:17.233Z,2.08
2022-08-02T22:01:52.640Z,2.20
2022-08-02T22:04:21.656Z,2.30
2022-08-02T22:06:49.324Z,2.42
2022-08-02T22:09:42.181Z,2.10
2022-08-02T22:12:06.510Z,2.08
2022-08-02T22:14:39.571Z,2.25
2022-08-02T22:17:08.775Z,2.10
2022-08-02T22:19:40.082Z,2.28
2022-08-02T22:22:20.399Z,2.10
2022-08-02T22:24:47.167Z,2.22
2022-08-02T22:27:14.431Z,2.20
2022-08-02T22:29:46.520Z,1.58
2022-08-02T22:32:21.065Z,2.00
2022-08-02T22:34:52.131Z,1.60
2022-08-02T22:38:16.560Z,1.70
2022-08-02T22:40:09.570Z,1.80
2022-08-02T22:42:36.641Z,1.90
2022-08-02T22:45:07.693Z,2.03
2022-08-02T22:47:38.644Z,2.03
2022-08-02T22:50:06.166Z,2.30
2022-08-02T22:52:38.771Z,2.10
2022-08-02T22:55:05.916Z,2.20
2022-08-02T22:57:33.378Z,2.08
2022-08-02T22:58:37.496Z,1.40
2022-08-02T22:58:48.533Z,2.00
